Time;durP1;ratioP1;P1;durP2;ratioP2;P2;SDS_P1;SDS_P2;PMS_P1;PMS_P2;Temp;Humidity;BMP_temperature;BMP_pressure;BME280_temperature;BME280_humidity;BME280_pressure;Samples;Min_cycle;Max_cycle;Signal;HPM_P1;HPM_P2
2022/05/07 00:01:19;;;;;;;0.00;0.00;;;15.60;99.90;;;;;;5001584;28;20029;-74
2022/05/07 00:03:46;;;;;;;0.00;0.00;;;15.60;99.90;;;;;;5002406;28;20113;-74
2022/05/07 00:06:11;;;;;;;0.00;0.00;;;15.60;99.90;;;;;;5001572;28;20618;-74
2022/05/07 00:11:21;;;;;;;0.00;0.00;;;15.70;99.90;;;;;;5001677;28;20254;-74
2022/05/07 00:13:48;;;;;;;0.00;0.00;;;15.60;99.90;;;;;;5017043;28;20018;-74
2022/05/07 00:18:58;;;;;;;0.00;0.00;;;15.60;99.90;;;;;;5002142;28;20096;-74
2022/05/07 00:21:24;;;;;;;0.00;0.00;;;15.50;99.90;;;;;;5001761;28;20022;-74
2022/05/07 00:23:49;;;;;;;0.00;0.00;;;15.40;99.90;;;;;;5017384;28;20098;-73
2022/05/07 00:26:15;;;;;;;0.00;0.00;;;15.50;99.90;;;;;;5001423;28;20216;-74
2022/05/07 00:28:41;;;;;;;0.00;0.00;;;15.40;99.90;;;;;;5001866;28;20022;-74
2022/05/07 00:31:25;;;;;;;0.00;0.00;;;15.50;99.90;;;;;;5002250;28;20393;-73
2022/05/07 00:33:51;;;;;;;0.00;0.00;;;15.40;99.90;;;;;;5001726;28;20080;-73
2022/05/07 00:36:17;;;;;;;0.00;0.00;;;15.40;99.90;;;;;;5001527;28;20086;-73
2022/05/07 00:38:42;;;;;;;0.00;0.00;;;15.40;99.90;;;;;;5001652;28;20022;-72
2022/05/07 00:41:08;;;;;;;0.00;0.00;;;15.40;99.90;;;;;;5001434;28;20019;-74
2022/05/07 00:43:39;;;;;;;0.00;0.00;;;15.40;99.90;;;;;;5016452;28;20282;-73
2022/05/07 00:46:05;;;;;;;0.00;0.00;;;15.40;99.90;;;;;;5001710;28;20316;-73
2022/05/07 00:48:31;;;;;;;0.00;0.00;;;15.40;99.90;;;;;;5016189;28;20080;-72
2022/05/07 00:53:44;;;;;;;0.00;0.00;;;15.40;99.90;;;;;;5001741;28;20064;-73
2022/05/07 00:56:09;;;;;;;0.00;0.00;;;15.40;99.90;;;;;;5001460;28;20023;-73
2022/05/07 00:58:35;;;;;;;0.00;0.00;;;15.40;99.90;;;;;;5017114;28;20025;-72
2022/05/07 01:01:01;;;;;;;0.00;0.00;;;15.40;99.90;;;;;;5016713;28;20096;-74
2022/05/07 01:03:27;;;;;;;0.00;0.00;;;15.40;99.90;;;;;;5000127;28;20085;-73
2022/05/07 01:05:53;;;;;;;0.00;0.00;;;15.40;99.90;;;;;;5001916;28;20324;-73
2022/05/07 01:08:20;;;;;;;0.00;0.00;;;15.40;99.90;;;;;;5000940;28;20258;-73
2022/05/07 01:10:47;;;;;;;0.00;0.00;;;15.40;99.90;;;;;;5001020;28;20058;-74
2022/05/07 01:13:13;;;;;;;0.00;0.00;;;15.40;99.90;;;;;;5000764;28;20106;-74
2022/05/07 01:15:46;;;;;;;0.00;0.00;;;15.40;99.90;;;;;;5001647;28;20023;-74
2022/05/07 01:18:13;;;;;;;0.00;0.00;;;15.40;99.90;;;;;;5002572;28;20018;-74
2022/05/07 01:20:39;;;;;;;0.00;0.00;;;15.40;99.90;;;;;;5001602;28;20030;-73
2022/05/07 01:23:05;;;;;;;0.00;0.00;;;15.30;99.90;;;;;;5002527;28;20049;-73
2022/05/07 01:25:32;;;;;;;0.00;0.00;;;15.30;99.90;;;;;;5002432;28;20068;-73
2022/05/07 01:27:58;;;;;;;0.00;0.00;;;15.40;99.90;;;;;;5003952;28;20029;-73
2022/05/07 01:30:24;;;;;;;0.00;0.00;;;15.40;99.90;;;;;;5001300;28;20026;-73
2022/05/07 01:32:50;;;;;;;0.00;0.00;;;15.40;99.90;;;;;;5001685;28;20042;-73
2022/05/07 01:35:16;;;;;;;0.00;0.00;;;15.40;99.90;;;;;;5000949;28;20033;-74
2022/05/07 01:37:42;;;;;;;0.00;0.00;;;15.40;99.90;;;;;;5000212;28;20094;-73
2022/05/07 01:40:08;;;;;;;0.00;0.00;;;15.50;99.90;;;;;;5000858;28;20072;-72
2022/05/07 01:42:34;;;;;;;0.00;0.00;;;15.50;99.90;;;;;;5015969;28;20117;-73
2022/05/07 01:45:01;;;;;;;0.00;0.00;;;15.40;99.90;;;;;;5016847;28;20030;-73
2022/05/07 01:50:11;;;;;;;0.00;0.00;;;15.40;99.90;;;;;;5001584;28;20336;-73
2022/05/07 01:52:37;;;;;;;0.00;0.00;;;15.40;99.90;;;;;;5001823;28;20033;-73
2022/05/07 01:55:04;;;;;;;0.00;0.00;;;15.40;99.90;;;;;;5000222;28;20018;-76
2022/05/07 01:57:29;;;;;;;0.00;0.00;;;15.40;99.90;;;;;;4998704;28;20094;-73
2022/05/07 01:59:55;;;;;;;0.00;0.00;;;15.40;99.90;;;;;;5000279;28;20018;-75
2022/05/07 02:02:21;;;;;;;0.00;0.00;;;15.40;99.90;;;;;;4998100;28;20026;-74
2022/05/07 02:04:47;;;;;;;0.00;0.00;;;15.40;99.90;;;;;;4998774;28;20061;-74
2022/05/07 02:07:13;;;;;;;0.00;0.00;;;15.40;99.90;;;;;;4998471;28;20052;-73
2022/05/07 02:09:38;;;;;;;0.00;0.00;;;15.40;99.90;;;;;;5000138;28;20037;-73
2022/05/07 02:12:05;;;;;;;0.00;0.00;;;15.40;99.90;;;;;;5000386;28;20050;-74
2022/05/07 02:14:32;;;;;;;0.00;0.00;;;15.40;99.90;;;;;;5014574;28;20018;-73
2022/05/07 02:16:58;;;;;;;0.00;0.00;;;15.40;99.90;;;;;;5000237;28;20022;-73
2022/05/07 02:19:24;;;;;;;0.00;0.00;;;15.40;99.90;;;;;;5000234;28;20317;-73
2022/05/07 02:21:49;;;;;;;0.00;0.00;;;15.40;99.90;;;;;;5000634;28;20030;-74
2022/05/07 02:24:16;;;;;;;0.00;0.00;;;15.40;99.90;;;;;;5000076;28;20049;-74
2022/05/07 02:26:42;;;;;;;0.00;0.00;;;15.40;99.90;;;;;;4999936;28;20018;-75
2022/05/07 02:29:09;;;;;;;0.00;0.00;;;15.30;99.90;;;;;;4999748;28;20030;-73
2022/05/07 02:31:35;;;;;;;0.00;0.00;;;15.40;99.90;;;;;;4999261;28;20024;-74
2022/05/07 02:34:01;;;;;;;0.00;0.00;;;15.30;99.90;;;;;;4999262;28;20022;-74
2022/05/07 02:36:27;;;;;;;0.00;0.00;;;15.30;99.90;;;;;;4998212;28;20405;-74
2022/05/07 02:38:53;;;;;;;0.00;0.00;;;15.30;99.90;;;;;;4999489;28;20078;-73
2022/05/07 02:44:04;;;;;;;0.00;0.00;;;15.20;99.90;;;;;;4999972;28;20331;-74
2022/05/07 02:46:30;;;;;;;0.00;0.00;;;15.20;99.90;;;;;;4998933;28;20018;-74
2022/05/07 02:48:56;;;;;;;0.00;0.00;;;15.10;99.90;;;;;;4999605;28;20080;-73
2022/05/07 02:51:22;;;;;;;0.00;0.00;;;15.20;99.90;;;;;;4998858;28;20064;-74
2022/05/07 02:53:48;;;;;;;0.00;0.00;;;15.20;99.90;;;;;;4998586;28;20430;-73
2022/05/07 02:56:14;;;;;;;0.00;0.00;;;15.10;99.90;;;;;;4999734;28;20042;-73
2022/05/07 02:58:40;;;;;;;0.00;0.00;;;15.10;99.90;;;;;;5000637;28;20195;-73
2022/05/07 03:01:05;;;;;;;0.00;0.00;;;15.10;99.90;;;;;;5015381;28;20305;-73
2022/05/07 03:03:31;;;;;;;0.00;0.00;;;15.10;99.90;;;;;;4998220;28;20409;-74
2022/05/07 03:05:59;;;;;;;0.00;0.00;;;15.10;99.90;;;;;;5000101;28;20022;-74
2022/05/07 03:08:25;;;;;;;0.00;0.00;;;15.20;99.90;;;;;;4999161;28;20029;-74
2022/05/07 03:10:51;;;;;;;0.00;0.00;;;15.10;99.90;;;;;;4999064;28;20206;-74
2022/05/07 03:13:16;;;;;;;0.00;0.00;;;15.10;99.90;;;;;;4998682;28;20472;-74
2022/05/07 03:15:42;;;;;;;0.00;0.00;;;15.20;99.90;;;;;;5002876;28;20297;-74
2022/05/07 03:18:08;;;;;;;0.00;0.00;;;15.10;99.90;;;;;;5001415;28;20094;-74
2022/05/07 03:20:34;;;;;;;0.00;0.00;;;15.10;99.90;;;;;;5002893;28;20019;-73
2022/05/07 03:23:00;;;;;;;0.00;0.00;;;15.10;99.90;;;;;;5002553;28;20022;-73
2022/05/07 03:25:26;;;;;;;0.00;0.00;;;15.10;99.90;;;;;;5002423;28;20029;-74
2022/05/07 03:27:52;;;;;;;0.00;0.00;;;15.10;99.90;;;;;;5003073;28;20143;-73
2022/05/07 03:30:17;;;;;;;0.00;0.00;;;15.10;99.90;;;;;;5002215;28;20022;-74
2022/05/07 03:32:43;;;;;;;0.00;0.00;;;15.10;99.90;;;;;;5002912;28;20052;-74
2022/05/07 03:35:09;;;;;;;0.00;0.00;;;15.10;99.90;;;;;;5017822;28;20236;-73
2022/05/07 03:37:34;;;;;;;0.00;0.00;;;15.10;99.90;;;;;;5002144;28;20025;-74
2022/05/07 03:40:00;;;;;;;0.00;0.00;;;15.10;99.90;;;;;;5002697;28;20019;-75
2022/05/07 03:42:28;;;;;;;0.00;0.00;;;15.20;99.90;;;;;;5002076;28;20022;-74
2022/05/07 03:44:53;;;;;;;0.00;0.00;;;15.20;99.90;;;;;;5002918;28;20026;-74
2022/05/07 03:47:19;;;;;;;0.00;0.00;;;15.20;99.90;;;;;;5016875;28;20268;-74
2022/05/07 03:49:45;;;;;;;0.00;0.00;;;15.20;99.90;;;;;;5017690;28;20026;-75
2022/05/07 03:54:56;;;;;;;0.00;0.00;;;15.20;99.90;;;;;;5002464;28;20037;-74
2022/05/07 03:57:22;;;;;;;0.00;0.00;;;15.20;99.90;;;;;;5001679;28;20205;-73
2022/05/07 03:59:47;;;;;;;0.00;0.00;;;15.10;99.90;;;;;;5002413;28;20077;-74
2022/05/07 04:02:13;;;;;;;0.00;0.00;;;15.10;99.90;;;;;;5001697;28;20093;-72
2022/05/07 04:04:39;;;;;;;0.00;0.00;;;15.10;99.90;;;;;;5016699;28;20329;-73
2022/05/07 04:07:05;;;;;;;0.00;0.00;;;15.10;99.90;;;;;;5002243;28;20181;-75
2022/05/07 04:09:30;;;;;;;0.00;0.00;;;15.10;99.90;;;;;;5000085;28;20077;-73
2022/05/07 04:11:56;;;;;;;0.00;0.00;;;15.10;99.90;;;;;;5000689;28;20026;-74
2022/05/07 04:14:22;;;;;;;0.00;0.00;;;15.10;99.90;;;;;;5001325;28;20081;-73
2022/05/07 04:16:48;;;;;;;0.00;0.00;;;15.10;99.90;;;;;;5001677;28;20085;-74
2022/05/07 04:19:15;;;;;;;0.00;0.00;;;15.10;99.90;;;;;;5016684;28;20026;-73
2022/05/07 04:21:40;;;;;;;0.00;0.00;;;15.10;99.90;;;;;;5000512;28;20105;-73
2022/05/07 04:24:06;;;;;;;0.00;0.00;;;15.10;99.90;;;;;;5001968;28;20207;-74
2022/05/07 04:26:32;;;;;;;0.00;0.00;;;15.10;99.90;;;;;;5016226;28;20018;-74
2022/05/07 04:29:17;;;;;;;0.00;0.00;;;15.10;99.90;;;;;;5017346;28;20049;-73
2022/05/07 04:31:44;;;;;;;0.00;0.00;;;15.20;99.90;;;;;;5002454;28;20254;-74
2022/05/07 04:34:10;;;;;;;0.00;0.00;;;15.20;99.90;;;;;;5001971;28;20045;-74
2022/05/07 04:36:35;;;;;;;0.00;0.00;;;15.30;99.90;;;;;;5001002;28;20314;-75
2022/05/07 04:39:01;;;;;;;0.00;0.00;;;15.30;99.90;;;;;;5001773;28;20018;-75
2022/05/07 04:41:27;;;;;;;0.00;0.00;;;15.30;99.90;;;;;;5001145;28;20033;-75
2022/05/07 04:43:52;;;;;;;0.00;0.00;;;15.00;99.90;;;;;;5000527;28;20048;-75
2022/05/07 04:46:18;;;;;;;0.00;0.00;;;15.30;99.90;;;;;;4999504;28;20191;-73
2022/05/07 04:48:45;;;;;;;0.00;0.00;;;15.30;99.90;;;;;;5001508;28;20093;-74
2022/05/07 04:51:11;;;;;;;0.00;0.00;;;15.30;99.90;;;;;;5016454;28;20093;-74
2022/05/07 04:53:36;;;;;;;0.00;0.00;;;15.30;99.90;;;;;;5000700;28;20022;-74
2022/05/07 04:56:02;;;;;;;0.00;0.00;;;15.30;99.90;;;;;;5001045;28;20225;-75
2022/05/07 04:58:28;;;;;;;0.00;0.00;;;15.40;99.90;;;;;;4999447;28;20038;-73
2022/05/07 05:00:54;;;;;;;0.00;0.00;;;15.40;99.90;;;;;;4999843;28;20030;-74
2022/05/07 05:03:19;;;;;;;0.00;0.00;;;15.40;99.90;;;;;;5000306;28;20121;-73
2022/05/07 05:05:45;;;;;;;0.00;0.00;;;15.40;99.90;;;;;;5001025;28;20323;-76
2022/05/07 05:08:11;;;;;;;0.00;0.00;;;15.40;99.90;;;;;;5000921;28;20026;-75
2022/05/07 05:10:37;;;;;;;0.00;0.00;;;15.40;99.90;;;;;;5000621;28;20037;-74
2022/05/07 05:13:02;;;;;;;0.00;0.00;;;15.40;99.90;;;;;;4999656;28;20022;-77
2022/05/07 05:15:28;;;;;;;0.00;0.00;;;15.50;99.90;;;;;;5000180;28;20023;-76
2022/05/07 05:17:54;;;;;;;0.00;0.00;;;15.40;99.90;;;;;;5000769;28;20045;-75
2022/05/07 05:20:20;;;;;;;0.00;0.00;;;15.40;99.90;;;;;;5000044;28;20022;-76
2022/05/07 05:22:49;;;;;;;0.00;0.00;;;15.50;99.90;;;;;;5000504;28;20298;-75
2022/05/07 05:25:16;;;;;;;0.00;0.00;;;15.40;99.90;;;;;;5000427;28;20058;-74
2022/05/07 05:27:42;;;;;;;0.00;0.00;;;15.40;99.90;;;;;;4999235;28;20085;-74
2022/05/07 05:30:09;;;;;;;0.00;0.00;;;15.40;99.90;;;;;;5000438;28;20267;-75
2022/05/07 05:32:34;;;;;;;0.00;0.00;;;15.30;99.90;;;;;;4999922;28;20295;-75
2022/05/07 05:35:00;;;;;;;0.00;0.00;;;15.40;99.90;;;;;;5015330;28;20022;-74
2022/05/07 05:37:25;;;;;;;0.00;0.00;;;15.30;99.90;;;;;;4999346;28;20205;-74
2022/05/07 05:39:51;;;;;;;0.00;0.00;;;15.30;99.90;;;;;;5015230;28;20205;-74
2022/05/07 05:42:17;;;;;;;0.00;0.00;;;15.30;99.90;;;;;;4999432;28;20096;-73
2022/05/07 05:44:43;;;;;;;0.00;0.00;;;15.30;99.90;;;;;;5015424;28;20261;-73
2022/05/07 05:47:09;;;;;;;0.00;0.00;;;15.30;99.90;;;;;;4998850;28;20022;-74
2022/05/07 05:49:35;;;;;;;0.00;0.00;;;15.30;99.90;;;;;;4999585;28;20309;-74
2022/05/07 05:52:03;;;;;;;0.00;0.00;;;15.30;99.90;;;;;;4999938;28;20068;-75
2022/05/07 05:54:29;;;;;;;0.00;0.00;;;15.40;99.90;;;;;;4998104;28;20278;-73
2022/05/07 05:56:56;;;;;;;0.00;0.00;;;15.40;99.90;;;;;;5000214;28;20076;-74
2022/05/07 05:59:22;;;;;;;0.00;0.00;;;15.50;99.90;;;;;;4999115;28;20022;-74
2022/05/07 06:01:47;;;;;;;0.00;0.00;;;15.50;99.90;;;;;;4999671;28;20240;-74
2022/05/07 06:04:14;;;;;;;0.00;0.00;;;15.50;99.90;;;;;;5014004;28;20222;-74
2022/05/07 06:06:41;;;;;;;0.00;0.00;;;15.50;99.90;;;;;;4998989;28;20022;-74
2022/05/07 06:09:06;;;;;;;0.00;0.00;;;15.50;99.90;;;;;;4999637;28;20033;-75
2022/05/07 06:11:32;;;;;;;0.00;0.00;;;15.50;99.90;;;;;;4997790;28;20019;-73
2022/05/07 06:13:58;;;;;;;0.00;0.00;;;15.50;99.90;;;;;;4999288;28;20033;-74
2022/05/07 06:16:24;;;;;;;0.00;0.00;;;15.50;99.90;;;;;;4998892;28;20254;-75
2022/05/07 06:18:50;;;;;;;0.00;0.00;;;15.50;99.90;;;;;;5013863;28;20093;-75
2022/05/07 06:21:16;;;;;;;0.00;0.00;;;15.50;99.90;;;;;;4997859;28;20018;-75
2022/05/07 06:23:42;;;;;;;0.00;0.00;;;15.50;99.90;;;;;;4998149;28;20074;-75
2022/05/07 06:28:52;;;;;;;0.00;0.00;;;15.50;99.90;;;;;;4999910;28;20201;-75
2022/05/07 06:31:18;;;;;;;0.00;0.00;;;15.60;99.90;;;;;;4999024;28;20026;-75
2022/05/07 06:33:44;;;;;;;0.00;0.00;;;15.60;99.90;;;;;;4999785;28;20084;-76
2022/05/07 06:36:10;;;;;;;0.00;0.00;;;15.60;99.90;;;;;;4999595;28;20365;-75
2022/05/07 06:38:36;;;;;;;0.00;0.00;;;15.60;99.90;;;;;;4998059;28;20094;-77
2022/05/07 06:41:04;;;;;;;0.00;0.00;;;15.60;99.90;;;;;;5014690;28;20029;-75
2022/05/07 06:43:31;;;;;;;0.00;0.00;;;15.60;99.90;;;;;;4997531;28;20026;-76
2022/05/07 06:45:57;;;;;;;0.00;0.00;;;15.60;99.90;;;;;;4999215;28;20026;-75
2022/05/07 06:48:24;;;;;;;0.00;0.00;;;15.60;99.90;;;;;;4998706;28;20022;-75
2022/05/07 06:50:50;;;;;;;0.00;0.00;;;15.60;99.90;;;;;;5002997;28;20030;-74
2022/05/07 06:53:16;;;;;;;0.00;0.00;;;15.60;99.90;;;;;;5003032;28;20026;-75
2022/05/07 06:55:58;;;;;;;0.00;0.00;;;15.60;99.90;;;;;;5003043;28;20026;-75
2022/05/07 06:58:29;;;;;;;0.00;0.00;;;15.60;99.90;;;;;;5003026;28;20086;-74
2022/05/07 07:00:57;;;;;;;0.00;0.00;;;15.60;99.90;;;;;;5002255;28;20056;-74
2022/05/07 07:03:23;;;;;;;0.00;0.00;;;15.60;99.90;;;;;;5001297;28;20052;-74
2022/05/07 07:05:50;;;;;;;0.00;0.00;;;15.60;99.90;;;;;;5003263;28;20081;-74
2022/05/07 07:08:16;;;;;;;0.00;0.00;;;15.70;99.90;;;;;;5003044;28;20104;-74
2022/05/07 07:10:42;;;;;;;0.00;0.00;;;15.70;99.90;;;;;;5003026;28;20026;-74
2022/05/07 07:13:09;;;;;;;0.00;0.00;;;15.70;99.90;;;;;;5001587;28;20045;-74
2022/05/07 07:15:54;;;;;;;0.00;0.00;;;15.70;99.90;;;;;;5017755;28;20163;-73
2022/05/07 07:18:20;;;;;;;0.00;0.00;;;15.80;99.90;;;;;;5017488;28;20212;-74
2022/05/07 07:20:49;;;;;;;0.00;0.00;;;15.80;99.90;;;;;;5003245;28;20077;-75
2022/05/07 07:23:15;;;;;;;0.00;0.00;;;15.80;99.90;;;;;;5001359;28;20026;-73
2022/05/07 07:25:42;;;;;;;0.00;0.00;;;16.10;99.90;;;;;;5002825;28;20033;-74
2022/05/07 07:28:09;;;;;;;0.00;0.00;;;15.80;99.90;;;;;;5002913;28;20018;-76
2022/05/07 07:30:35;;;;;;;0.00;0.00;;;15.80;99.90;;;;;;5001550;28;20105;-75
2022/05/07 07:33:02;;;;;;;0.00;0.00;;;15.90;99.90;;;;;;5018609;28;20022;-74
2022/05/07 07:35:28;;;;;;;0.00;0.00;;;15.90;99.90;;;;;;5002679;28;20333;-73
2022/05/07 07:37:54;;;;;;;0.00;0.00;;;15.90;99.90;;;;;;5019139;28;20026;-74
2022/05/07 07:40:19;;;;;;;0.00;0.00;;;16.00;99.90;;;;;;5018328;28;20298;-74
2022/05/07 07:42:45;;;;;;;0.00;0.00;;;16.00;99.90;;;;;;5018225;28;20033;-74
2022/05/07 07:47:57;;;;;;;0.00;0.00;;;16.10;99.90;;;;;;5003124;28;20136;-74
2022/05/07 07:50:23;;;;;;;0.00;0.00;;;16.20;99.90;;;;;;5001633;28;20221;-75
2022/05/07 07:52:53;;;;;;;0.00;0.00;;;16.40;99.90;;;;;;5002549;28;20050;-74
2022/05/07 07:55:25;;;;;;;0.00;0.00;;;16.40;99.90;;;;;;5001812;28;20080;-75
2022/05/07 07:57:55;;;;;;;0.00;0.00;;;16.50;99.90;;;;;;5001234;28;20090;-74
2022/05/07 08:00:21;;;;;;;0.00;0.00;;;16.70;99.90;;;;;;5001347;28;20026;-75
2022/05/07 08:02:53;;;;;;;0.00;0.00;;;16.70;99.90;;;;;;5001714;28;20030;-74
2022/05/07 08:05:23;;;;;;;0.00;0.00;;;16.80;99.90;;;;;;5001597;28;20313;-74
2022/05/07 08:13:17;;;;;;;0.00;0.00;;;16.90;99.90;;;;;;5001617;28;20291;-74
2022/05/07 08:15:43;;;;;;;0.00;0.00;;;16.90;99.90;;;;;;5001175;28;20022;-74
2022/05/07 08:18:08;;;;;;;0.00;0.00;;;16.90;99.90;;;;;;5002127;28;20201;-74
2022/05/07 08:20:34;;;;;;;0.00;0.00;;;16.90;99.90;;;;;;5001758;28;20021;-74
2022/05/07 08:22:59;;;;;;;0.00;0.00;;;17.00;99.90;;;;;;5001731;28;20036;-74
2022/05/07 08:25:25;;;;;;;0.00;0.00;;;17.00;99.90;;;;;;5001544;28;20369;-74
2022/05/07 08:27:51;;;;;;;0.00;0.00;;;17.00;99.90;;;;;;5002059;28;20018;-74
2022/05/07 08:30:36;;;;;;;0.00;0.00;;;17.00;99.90;;;;;;5016855;28;20089;-74
2022/05/07 08:33:21;;;;;;;0.00;0.00;;;17.00;99.90;;;;;;5002132;28;20026;-74
2022/05/07 08:35:47;;;;;;;0.00;0.00;;;17.00;99.90;;;;;;5002005;28;20089;-75
2022/05/07 08:38:12;;;;;;;0.00;0.00;;;17.10;99.90;;;;;;5001802;28;20033;-75
2022/05/07 08:40:41;;;;;;;0.00;0.00;;;17.20;99.90;;;;;;5001642;28;20019;-75
2022/05/07 08:43:08;;;;;;;0.00;0.00;;;17.20;99.90;;;;;;5000634;28;20030;-74
2022/05/07 08:45:40;;;;;;;0.00;0.00;;;17.40;99.90;;;;;;5016658;28;20195;-74
2022/05/07 08:48:06;;;;;;;0.00;0.00;;;17.50;99.90;;;;;;5002065;28;20023;-74
2022/05/07 08:50:32;;;;;;;0.00;0.00;;;17.70;99.90;;;;;;5016119;28;20170;-75
2022/05/07 08:52:58;;;;;;;0.00;0.00;;;18.00;99.90;;;;;;5000431;28;20144;-73
2022/05/07 08:55:24;;;;;;;0.00;0.00;;;18.20;99.90;;;;;;5000879;28;20018;-73
2022/05/07 08:57:51;;;;;;;0.00;0.00;;;18.50;99.90;;;;;;5001305;28;20088;-74
2022/05/07 09:00:19;;;;;;;0.00;0.00;;;18.70;99.90;;;;;;5000507;28;20321;-74
2022/05/07 09:02:48;;;;;;;;;;;18.80;99.90;;;;;;5001175;28;20030;-74
2022/05/07 09:05:18;;;;;;;0.00;0.00;;;18.90;99.90;;;;;;5001682;28;19972;-73
2022/05/07 09:07:57;;;;;;;0.00;0.00;;;18.90;99.90;;;;;;5000099;28;20297;-74
2022/05/07 09:10:27;;;;;;;0.00;0.00;;;19.10;99.90;;;;;;5000893;28;20082;-75
2022/05/07 09:12:53;;;;;;;0.00;0.00;;;19.10;99.90;;;;;;5000140;28;20089;-75
2022/05/07 09:15:19;;;;;;;0.00;0.00;;;19.20;99.90;;;;;;5000768;28;20240;-74
2022/05/07 09:17:47;;;;;;;0.00;0.00;;;19.20;99.90;;;;;;5016668;28;20022;-73
2022/05/07 09:20:21;;;;;;;0.00;0.00;;;19.20;99.90;;;;;;5000032;28;20030;-73
2022/05/07 09:22:57;;;;;;;0.00;0.00;;;19.20;99.90;;;;;;4999412;28;20033;-75
2022/05/07 09:25:25;;;;;;;0.00;0.00;;;19.30;99.90;;;;;;5000827;28;20241;-76
2022/05/07 09:27:52;;;;;;;;;;;19.50;99.90;;;;;;5001153;28;20022;-74
2022/05/07 09:30:28;;;;;;;0.00;0.00;;;19.50;99.90;;;;;;5000478;28;19909;-73
2022/05/07 09:32:55;;;;;;;0.00;0.00;;;19.50;99.90;;;;;;5001056;28;20088;-73
2022/05/07 09:38:14;;;;;;;0.00;0.00;;;19.50;99.90;;;;;;5000806;28;20034;-74
2022/05/07 09:40:42;;;;;;;0.00;0.00;;;19.40;99.90;;;;;;5000736;28;20052;-74
2022/05/07 09:43:09;;;;;;;0.00;0.00;;;19.40;99.90;;;;;;5000426;28;20030;-73
2022/05/07 09:45:37;;;;;;;0.00;0.00;;;19.40;99.90;;;;;;5000346;28;20306;-74
2022/05/07 09:48:07;;;;;;;0.00;0.00;;;19.50;99.90;;;;;;4999723;28;20030;-73
2022/05/07 09:58:48;;;;;;;0.00;0.00;;;19.60;99.90;;;;;;5000255;28;20053;-73
2022/05/07 10:01:45;;;;;;;0.00;0.00;;;19.60;99.90;;;;;;5015531;28;20026;-73
2022/05/07 10:04:28;;;;;;;0.00;0.00;;;19.60;99.90;;;;;;5000321;28;20234;-73
2022/05/07 10:07:29;;;;;;;0.00;0.00;;;19.60;99.90;;;;;;5000541;28;20050;-74
2022/05/07 10:10:13;;;;;;;0.00;0.00;;;19.40;99.90;;;;;;4940319;29;20031;-73
2022/05/07 10:12:44;;;;;;;0.00;0.00;;;19.40;99.90;;;;;;4994521;28;20056;-73
2022/05/07 10:15:13;;;;;;;0.00;0.00;;;19.50;99.90;;;;;;5015495;28;20194;-72
2022/05/07 10:17:39;;;;;;;0.00;0.00;;;19.40;99.90;;;;;;4999652;28;20018;-73
2022/05/07 10:20:09;;;;;;;0.00;0.00;;;19.20;99.90;;;;;;5000266;28;20026;-73
2022/05/07 10:22:35;;;;;;;0.00;0.00;;;19.10;99.90;;;;;;5014430;28;20041;-73
2022/05/07 10:25:05;;;;;;;0.00;0.00;;;19.00;99.90;;;;;;5000175;28;20022;-73
2022/05/07 10:27:36;;;;;;;0.00;0.00;;;19.00;99.90;;;;;;4999551;28;20178;-72
2022/05/07 10:30:06;;;;;;;0.00;0.00;;;18.90;99.90;;;;;;4999031;28;20089;-73
2022/05/07 10:32:57;;;;;;;0.00;0.00;;;18.70;99.90;;;;;;4999419;28;20093;-73
2022/05/07 10:35:45;;;;;;;0.00;0.00;;;18.60;99.90;;;;;;4998184;28;20018;-73
2022/05/07 10:38:23;;;;;;;0.00;0.00;;;18.60;99.90;;;;;;4999699;28;20018;-72
2022/05/07 10:40:57;;;;;;;0.00;0.00;;;18.60;99.90;;;;;;5000042;28;20076;-73
2022/05/07 10:43:25;;;;;;;0.00;0.00;;;18.70;99.90;;;;;;4999760;28;20089;-73
2022/05/07 10:46:01;;;;;;;0.00;0.00;;;18.70;99.90;;;;;;4999751;28;20310;-75
2022/05/07 10:48:27;;;;;;;0.00;0.00;;;18.80;99.90;;;;;;4997955;28;20097;-73
2022/05/07 10:50:57;;;;;;;0.00;0.00;;;18.90;99.90;;;;;;5000607;28;20026;-74
2022/05/07 10:53:34;;;;;;;0.00;0.00;;;19.00;99.90;;;;;;4999298;28;20026;-74
2022/05/07 10:56:00;;;;;;;0.00;0.00;;;19.00;99.90;;;;;;5015379;28;20157;-73
2022/05/07 10:58:29;;;;;;;0.00;0.00;;;19.10;99.90;;;;;;5000249;28;20120;-73
2022/05/07 11:00:58;;;;;;;0.00;0.00;;;19.10;99.90;;;;;;5015298;28;20030;-75
2022/05/07 11:03:26;;;;;;;0.00;0.00;;;19.20;99.90;;;;;;4999589;28;20379;-73
2022/05/07 11:06:00;;;;;;;0.00;0.00;;;19.20;99.90;;;;;;4999901;28;20030;-74
2022/05/07 11:08:29;;;;;;;0.00;0.00;;;19.30;99.90;;;;;;4998335;28;20026;-73
2022/05/07 11:11:14;;;;;;;0.00;0.00;;;19.50;99.90;;;;;;4999938;28;20026;-78
2022/05/07 11:13:54;;;;;;;0.00;0.00;;;19.70;99.90;;;;;;4999730;28;20038;-79
2022/05/07 11:16:21;;;;;;;0.00;0.00;;;19.80;99.90;;;;;;4999287;28;20270;-80
2022/05/07 11:18:51;;;;;;;0.00;0.00;;;19.90;99.90;;;;;;4999717;28;20037;-78
2022/05/07 11:21:21;;;;;;;0.00;0.00;;;20.10;99.90;;;;;;4998786;28;20022;-76
2022/05/07 11:23:58;;;;;;;0.00;0.00;;;20.20;99.90;;;;;;5014775;28;20032;-77
2022/05/07 11:26:25;;;;;;;0.00;0.00;;;20.20;99.90;;;;;;4999648;28;20026;-79
2022/05/07 11:28:51;;;;;;;0.00;0.00;;;20.30;99.90;;;;;;5014887;28;20026;-78
2022/05/07 11:31:31;;;;;;;0.00;0.00;;;20.40;99.90;;;;;;4999666;28;20021;-76
2022/05/07 11:34:03;;;;;;;0.00;0.00;;;20.40;99.90;;;;;;4998539;28;20089;-76
2022/05/07 11:36:29;;;;;;;0.00;0.00;;;20.40;99.90;;;;;;5002643;28;20042;-79
2022/05/07 11:39:00;;;;;;;0.00;0.00;;;20.50;99.90;;;;;;5003232;28;20285;-77
2022/05/07 11:41:26;;;;;;;0.00;0.00;;;20.60;99.90;;;;;;5002762;28;20022;-79
2022/05/07 11:46:56;;;;;;;0.00;0.00;;;20.70;99.90;;;;;;5002725;28;20205;-78
2022/05/07 11:49:50;;;;;;;0.00;0.00;;;20.70;99.90;;;;;;5002514;28;20065;-78
2022/05/07 11:52:17;;;;;;;0.00;0.00;;;20.40;99.90;;;;;;5003300;28;20278;-80
2022/05/07 11:54:49;;;;;;;0.00;0.00;;;20.40;99.90;;;;;;5003023;28;20206;-80
2022/05/07 11:57:29;;;;;;;0.00;0.00;;;20.40;99.90;;;;;;5018793;28;20026;-80
2022/05/07 11:59:55;;;;;;;0.00;0.00;;;20.50;99.90;;;;;;5001768;28;20214;-80
2022/05/07 12:02:21;;;;;;;0.00;0.00;;;20.50;99.90;;;;;;5002708;28;20045;-79
2022/05/07 12:04:56;;;;;;;0.00;0.00;;;20.50;99.90;;;;;;5018478;28;20070;-76
2022/05/07 12:07:22;;;;;;;0.00;0.00;;;20.50;99.90;;;;;;5002955;28;20034;-81
2022/05/07 12:09:47;;;;;;;0.00;0.00;;;20.50;99.90;;;;;;5002858;28;20373;-79
2022/05/07 12:12:13;;;;;;;0.00;0.00;;;20.40;99.90;;;;;;5003084;28;20026;-78
2022/05/07 12:14:40;;;;;;;0.00;0.00;;;20.40;99.90;;;;;;5002435;28;20253;-78
2022/05/07 12:19:50;;;;;;;0.00;0.00;;;20.60;99.90;;;;;;5002290;28;20029;-78
2022/05/07 12:30:42;;;;;;;0.00;0.00;;;20.60;99.90;;;;;;5002516;28;20068;-79
2022/05/07 12:33:08;;;;;;;0.00;0.00;;;20.70;99.90;;;;;;5001948;28;20302;-78
2022/05/07 12:35:35;;;;;;;0.00;0.00;;;20.70;99.90;;;;;;5000650;28;20018;-78
2022/05/07 12:38:20;;;;;;;0.00;0.00;;;20.60;99.90;;;;;;5000879;28;20022;-79
2022/05/07 12:40:45;;;;;;;0.00;0.00;;;20.70;99.90;;;;;;5001206;28;20247;-79
2022/05/07 12:43:11;;;;;;;0.00;0.00;;;20.70;99.90;;;;;;5002255;28;20098;-80
2022/05/07 12:45:37;;;;;;;0.00;0.00;;;20.70;99.90;;;;;;5000162;28;20209;-77
2022/05/07 12:50:46;;;;;;;0.00;0.00;;;20.70;99.90;;;;;;5001596;28;20080;-75
2022/05/07 12:53:14;;;;;;;0.00;0.00;;;20.70;99.90;;;;;;5001935;28;20038;-80
2022/05/07 12:55:43;;;;;;;;;;;20.80;99.90;;;;;;5001900;28;20034;-80
2022/05/07 12:58:11;;;;;;;0.00;0.00;;;20.70;99.90;;;;;;5016828;28;19909;-80
2022/05/07 13:00:37;;;;;;;0.00;0.00;;;20.70;99.90;;;;;;5001346;28;20374;-77
2022/05/07 13:03:03;;;;;;;0.00;0.00;;;20.60;99.90;;;;;;5001601;28;20400;-80
2022/05/07 13:05:30;;;;;;;0.00;0.00;;;20.60;99.90;;;;;;5016380;28;20022;-79
2022/05/07 13:07:56;;;;;;;0.00;0.00;;;20.60;99.90;;;;;;5001695;28;20050;-80
2022/05/07 13:10:22;;;;;;;0.00;0.00;;;20.60;99.90;;;;;;5001188;28;20023;-77
2022/05/07 13:12:48;;;;;;;0.00;0.00;;;20.60;99.90;;;;;;5001320;28;20030;-81
2022/05/07 13:15:14;;;;;;;0.00;0.00;;;20.60;99.90;;;;;;5001632;28;20045;-80
2022/05/07 13:17:40;;;;;;;0.00;0.00;;;20.60;99.90;;;;;;4999695;28;20305;-76
2022/05/07 13:20:25;;;;;;;0.00;0.00;;;20.60;99.90;;;;;;5016733;28;20312;-80
2022/05/07 13:22:52;;;;;;;0.00;0.00;;;20.60;99.90;;;;;;5001585;28;20018;-79
2022/05/07 13:25:18;;;;;;;0.00;0.00;;;20.50;99.90;;;;;;5001025;28;20046;-78
2022/05/07 13:27:45;;;;;;;0.00;0.00;;;20.50;99.90;;;;;;5016712;28;20026;-80
2022/05/07 13:30:12;;;;;;;0.00;0.00;;;20.60;99.90;;;;;;5001605;28;20021;-79
2022/05/07 13:32:38;;;;;;;0.00;0.00;;;20.60;99.90;;;;;;5002451;28;20317;-76
2022/05/07 13:35:04;;;;;;;0.00;0.00;;;20.50;99.90;;;;;;5002073;28;20018;-80
2022/05/07 13:37:30;;;;;;;0.00;0.00;;;20.50;99.90;;;;;;5000735;28;20049;-82
2022/05/07 13:39:58;;;;;;;0.00;0.00;;;20.50;99.90;;;;;;5001311;28;20022;-82
2022/05/07 13:42:24;;;;;;;0.00;0.00;;;20.50;99.90;;;;;;5000636;28;20026;-82
2022/05/07 13:44:51;;;;;;;0.00;0.00;;;20.50;99.90;;;;;;4999360;28;20023;-80
2022/05/07 13:47:18;;;;;;;0.00;0.00;;;20.50;99.90;;;;;;4998855;28;20343;-75